^^
Station Historical Data
Daily Summary for Nil La, TWC- Units:  Both    English   Metric
« Previous Day
Next Day »
Daily Weekly Monthly Yearly Custom
  High: Low: Average:
Temperature: TemperatureF °F /  -17.8 °C 44.8 °F /  7.1 °C 52.4 °F /  11.3 °C
Dew Point: DewpointF °F /  -17.8 °C 9.7 °F /  -12.4 °C 21.2 °F /  -6 °C
Humidity: Humidity% 10% 31%
Wind Speed: WindSpeedMPHmph /  0km/h - 0.3mph /  0.5km/h
Wind Gust: WindSpeedGustMPHmph /  0km/h - -
Wind- - SW
Pressure: PressureIn in /  0 hPa 29.91 in /  1012.8 hPa -
Precipitation: 0 in /  0 mm    
Historical Graphs
 
 
Tabular Data for Nil La, TWC-
Time Temperature Dew Point Pressure Wind Wind Speed Wind Gust Humidity Rainfall Rate (Hourly) solar Conditions
TemperatureF °F /  -17.8 °C DewpointF °F /  -17.8 °C PressureInin /  0hPa Calm     Humidity% HourlyPrecipInin /  0mm SolarRadiationWatts/m^2 W/m2 Conditions
00:04 53.2 °F /  11.8 °C 29.5 °F /  -1.4 °C 29.95in /  1014.1hPa Calm     40% 0in /  0mm 0.00 W/m2
00:09 53.1 °F /  11.7 °C 29.3 °F /  -1.5 °C 29.95in /  1014.1hPa Calm   2mph /  3.2km/h 40% 0in /  0mm 0.00 W/m2
00:14 52.9 °F /  11.6 °C 29.3 °F /  -1.5 °C 29.95in /  1014.1hPa Calm   1mph /  1.6km/h 40% 0in /  0mm 0.00 W/m2
00:19 52.9 °F /  11.6 °C 29.3 °F /  -1.5 °C 29.95in /  1014.1hPa Calm     40% 0in /  0mm 0.00 W/m2
00:24 52.9 °F /  11.6 °C 29.3 °F /  -1.5 °C 29.95in /  1014.1hPa Calm     40% 0in /  0mm 0.00 W/m2
00:29 52.9 °F /  11.6 °C 29.3 °F /  -1.5 °C 29.95in /  1014.1hPa Calm     40% 0in /  0mm 0.00 W/m2
00:33 52.7 °F /  11.5 °C 29.1 °F /  -1.6 °C 29.95in /  1014.1hPa Calm     40% 0in /  0mm 0.00 W/m2
00:39 52.3 °F /  11.3 °C 28.8 °F /  -1.8 °C 29.95in /  1014.1hPa East 0.9mph /  1.4km/h 1mph /  1.6km/h 40% 0in /  0mm 0.00 W/m2
00:44 52.3 °F /  11.3 °C 28.8 °F /  -1.8 °C 29.95in /  1014.1hPa Calm   1mph /  1.6km/h 40% 0in /  0mm 0.00 W/m2
00:49 52.3 °F /  11.3 °C 28.8 °F /  -1.8 °C 29.95in /  1014.1hPa Calm     40% 0in /  0mm 0.00 W/m2
00:54 52.2 °F /  11.2 °C 28.6 °F /  -1.9 °C 29.95in /  1014.1hPa Calm     40% 0in /  0mm 0.00 W/m2
00:59 52 °F /  11.1 °C 28.9 °F /  -1.7 °C 29.95in /  1014.1hPa Calm     41% 0in /  0mm 0.00 W/m2
01:04 51.8 °F /  11 °C 28.2 °F /  -2.1 °C 29.95in /  1014.1hPa Calm     40% 0in /  0mm 0.00 W/m2
01:09 51.6 °F /  10.9 °C 28.8 °F /  -1.8 °C 29.94in /  1013.8hPa Calm     41% 0in /  0mm 0.00 W/m2
01:14 51.6 °F /  10.9 °C 28 °F /  -2.2 °C 29.94in /  1013.8hPa Calm     40% 0in /  0mm 0.00 W/m2
01:18 51.6 °F /  10.9 °C 28 °F /  -2.2 °C 29.94in /  1013.8hPa Calm   2mph /  3.2km/h 40% 0in /  0mm 0.00 W/m2
01:24 51.6 °F /  10.9 °C 28 °F /  -2.2 °C 29.94in /  1013.8hPa Calm     40% 0in /  0mm 0.00 W/m2
01:29 51.6 °F /  10.9 °C 27.5 °F /  -2.5 °C 29.94in /  1013.8hPa Calm   1mph /  1.6km/h 39% 0in /  0mm 0.00 W/m2
01:34 51.6 °F /  10.9 °C 27.5 °F /  -2.5 °C 29.94in /  1013.8hPa East 0.9mph /  1.4km/h 2mph /  3.2km/h 39% 0in /  0mm 0.00 W/m2
01:39 51.4 °F /  10.8 °C 27.3 °F /  -2.6 °C 29.94in /  1013.8hPa Calm   1mph /  1.6km/h 39% 0in /  0mm 0.00 W/m2
01:44 51.4 °F /  10.8 °C 27.3 °F /  -2.6 °C 29.94in /  1013.8hPa Calm   2mph /  3.2km/h 39% 0in /  0mm 0.00 W/m2
01:49 51.3 °F /  10.7 °C 27.1 °F /  -2.7 °C 29.93in /  1013.4hPa Calm   1mph /  1.6km/h 39% 0in /  0mm 0.00 W/m2
01:54 51.1 °F /  10.6 °C 27 °F /  -2.8 °C 29.93in /  1013.4hPa Calm   1mph /  1.6km/h 39% 0in /  0mm 0.00 W/m2
01:59 50.9 °F /  10.5 °C 26.2 °F /  -3.2 °C 29.93in /  1013.4hPa Calm     38% 0in /  0mm 0.00 W/m2
02:04 50.7 °F /  10.4 °C 26.1 °F /  -3.3 °C 29.93in /  1013.4hPa Calm     38% 0in /  0mm 0.00 W/m2
02:09 50.7 °F /  10.4 °C 26.1 °F /  -3.3 °C 29.93in /  1013.4hPa Calm     38% 0in /  0mm 0.00 W/m2
02:14 50.7 °F /  10.4 °C 26.1 °F /  -3.3 °C 29.93in /  1013.4hPa Calm     38% 0in /  0mm 0.00 W/m2
02:19 50.7 °F /  10.4 °C 26.1 °F /  -3.3 °C 29.92in /  1013.1hPa Calm     38% 0in /  0mm 0.00 W/m2
02:24 50.7 °F /  10.4 °C 25.3 °F /  -3.7 °C 29.92in /  1013.1hPa Calm     37% 0in /  0mm 0.00 W/m2
02:29 50.5 °F /  10.3 °C 25.2 °F /  -3.8 °C 29.92in /  1013.1hPa Calm     37% 0in /  0mm 0.00 W/m2
02:34 50.2 °F /  10.1 °C 24.3 °F /  -4.3 °C 29.92in /  1013.1hPa Calm     36% 0in /  0mm 0.00 W/m2
02:39 49.8 °F /  9.9 °C 23.9 °F /  -4.5 °C 29.92in /  1013.1hPa Calm     36% 0in /  0mm 0.00 W/m2
02:44 49.6 °F /  9.8 °C 23.7 °F /  -4.6 °C 29.92in /  1013.1hPa Calm     36% 0in /  0mm 0.00 W/m2
02:49 49.5 °F /  9.7 °C 23.5 °F /  -4.7 °C 29.92in /  1013.1hPa Calm     36% 0in /  0mm 0.00 W/m2
02:54 49.3 °F /  9.6 °C 24.1 °F /  -4.4 °C 29.92in /  1013.1hPa Calm     37% 0in /  0mm 0.00 W/m2
02:59 48.9 °F /  9.4 °C 23.7 °F /  -4.6 °C 29.92in /  1013.1hPa Calm     37% 0in /  0mm 0.00 W/m2
03:04 48.7 °F /  9.3 °C 23.5 °F /  -4.7 °C 29.92in /  1013.1hPa Calm   2mph /  3.2km/h 37% 0in /  0mm 0.00 W/m2
03:09 48.6 °F /  9.2 °C 23.5 °F /  -4.7 °C 29.91in /  1012.8hPa Calm   1mph /  1.6km/h 37% 0in /  0mm 0.00 W/m2
03:14 48.6 °F /  9.2 °C 23.5 °F /  -4.7 °C 29.91in /  1012.8hPa Calm   2mph /  3.2km/h 37% 0in /  0mm 0.00 W/m2
03:19 48.6 °F /  9.2 °C 22.8 °F /  -5.1 °C 29.91in /  1012.8hPa Calm     36% 0in /  0mm 0.00 W/m2
03:24 48.6 °F /  9.2 °C 22.8 °F /  -5.1 °C 29.92in /  1013.1hPa Calm     36% 0in /  0mm 0.00 W/m2
03:29 48.4 °F /  9.1 °C 22.6 °F /  -5.2 °C 29.92in /  1013.1hPa Calm     36% 0in /  0mm 0.00 W/m2
03:34 48.4 °F /  9.1 °C 22.6 °F /  -5.2 °C 29.92in /  1013.1hPa Calm     36% 0in /  0mm 0.00 W/m2
03:39 48 °F /  8.9 °C 22.3 °F /  -5.4 °C 29.92in /  1013.1hPa Calm     36% 0in /  0mm 0.00 W/m2
03:44 47.8 °F /  8.8 °C 22.1 °F /  -5.5 °C 29.91in /  1012.8hPa Calm     36% 0in /  0mm 0.00 W/m2
03:49 47.8 °F /  8.8 °C 21.6 °F /  -5.8 °C 29.91in /  1012.8hPa Calm   2mph /  3.2km/h 35% 0in /  0mm 0.00 W/m2
03:54 48 °F /  8.9 °C 21 °F /  -6.1 °C 29.91in /  1012.8hPa Calm     34% 0in /  0mm 0.00 W/m2
03:59 48.2 °F /  9 °C 20.5 °F /  -6.4 °C 29.91in /  1012.8hPa Calm   1mph /  1.6km/h 33% 0in /  0mm 0.00 W/m2
04:04 48.4 °F /  9.1 °C 20.7 °F /  -6.3 °C 29.91in /  1012.8hPa Calm   1mph /  1.6km/h 33% 0in /  0mm 0.00 W/m2
04:09 48.4 °F /  9.1 °C 21.4 °F /  -5.9 °C 29.91in /  1012.8hPa Calm     34% 0in /  0mm 0.00 W/m2
04:14 48.4 °F /  9.1 °C 20.7 °F /  -6.3 °C 29.91in /  1012.8hPa Calm     33% 0in /  0mm 0.00 W/m2
04:19 48.4 °F /  9.1 °C 21.4 °F /  -5.9 °C 29.91in /  1012.8hPa Calm     34% 0in /  0mm 0.00 W/m2
04:24 48 °F /  8.9 °C 20.3 °F /  -6.5 °C 29.91in /  1012.8hPa Calm     33% 0in /  0mm 0.00 W/m2
04:29 48 °F /  8.9 °C 19.6 °F /  -6.9 °C 29.91in /  1012.8hPa Calm   1mph /  1.6km/h 32% 0in /  0mm 0.00 W/m2
04:34 47.8 °F /  8.8 °C 20.1 °F /  -6.6 °C 29.91in /  1012.8hPa Calm   1mph /  1.6km/h 33% 0in /  0mm 0.00 W/m2
04:39 47.8 °F /  8.8 °C 18.7 °F /  -7.4 °C 29.91in /  1012.8hPa Calm     31% 0in /  0mm 0.00 W/m2
04:44 47.7 °F /  8.7 °C 18.5 °F /  -7.5 °C 29.91in /  1012.8hPa Calm   1mph /  1.6km/h 31% 0in /  0mm 0.00 W/m2
04:49 47.8 °F /  8.8 °C 18.7 °F /  -7.4 °C 29.91in /  1012.8hPa Calm     31% 0in /  0mm 0.00 W/m2
04:54 47.8 °F /  8.8 °C 18.7 °F /  -7.4 °C 29.91in /  1012.8hPa Calm   1mph /  1.6km/h 31% 0in /  0mm 0.00 W/m2
04:59 47.8 °F /  8.8 °C 18 °F /  -7.8 °C 29.91in /  1012.8hPa SE 2mph /  3.2km/h 2mph /  3.2km/h 30% 0in /  0mm 0.00 W/m2
05:04 48 °F /  8.9 °C 17.2 °F /  -8.2 °C 29.91in /  1012.8hPa Calm   1mph /  1.6km/h 29% 0in /  0mm 0.00 W/m2
05:09 48 °F /  8.9 °C 16.5 °F /  -8.6 °C 29.91in /  1012.8hPa SE 0.9mph /  1.4km/h 5mph /  8km/h 28% 0in /  0mm 0.00 W/m2
05:14 48.4 °F /  9.1 °C 16.7 °F /  -8.5 °C 29.91in /  1012.8hPa Calm   1mph /  1.6km/h 28% 0in /  0mm 0.00 W/m2
05:19 48.6 °F /  9.2 °C 16.9 °F /  -8.4 °C 29.91in /  1012.8hPa Calm     28% 0in /  0mm 0.00 W/m2
05:24 48.6 °F /  9.2 °C 17.8 °F /  -7.9 °C 29.91in /  1012.8hPa Calm     29% 0in /  0mm 0.00 W/m2
05:29 48.4 °F /  9.1 °C 18.3 °F /  -7.6 °C 29.91in /  1012.8hPa Calm     30% 0in /  0mm 0.00 W/m2
05:34 48 °F /  8.9 °C 18.9 °F /  -7.3 °C 29.91in /  1012.8hPa Calm     31% 0in /  0mm 0.00 W/m2
05:39 47.8 °F /  8.8 °C 18 °F /  -7.8 °C 29.91in /  1012.8hPa Calm     30% 0in /  0mm 0.00 W/m2
05:44 47.5 °F /  8.6 °C 16.9 °F /  -8.4 °C 29.91in /  1012.8hPa Calm     29% 0in /  0mm 0.00 W/m2
05:49 47.5 °F /  8.6 °C 18.3 °F /  -7.6 °C 29.91in /  1012.8hPa Calm     31% 0in /  0mm 0.00 W/m2
05:54 47.1 °F /  8.4 °C 18 °F /  -7.8 °C 29.91in /  1012.8hPa Calm     31% 0in /  0mm 0.00 W/m2
05:59 47.1 °F /  8.4 °C 18 °F /  -7.8 °C 29.91in /  1012.8hPa Calm     31% 0in /  0mm 0.00 W/m2
06:04 46.9 °F /  8.3 °C 17.1 °F /  -8.3 °C 29.92in /  1013.1hPa Calm     30% 0in /  0mm 0.00 W/m2
06:09 46.8 °F /  8.2 °C 17.8 °F /  -7.9 °C 29.92in /  1013.1hPa Calm     31% 0in /  0mm 0.00 W/m2
06:14 46.6 °F /  8.1 °C 17.6 °F /  -8 °C 29.92in /  1013.1hPa Calm     31% 0in /  0mm 0.00 W/m2
06:19 46.6 °F /  8.1 °C 17.6 °F /  -8 °C 29.92in /  1013.1hPa Calm     31% 0in /  0mm 0.00 W/m2
06:24 46.2 °F /  7.9 °C 18 °F /  -7.8 °C 29.92in /  1013.1hPa Calm     32% 0in /  0mm 0.00 W/m2
06:29 46 °F /  7.8 °C 18.5 °F /  -7.5 °C 29.92in /  1013.1hPa Calm     33% 0in /  0mm 0.00 W/m2
06:34 46 °F /  7.8 °C 19.2 °F /  -7.1 °C 29.92in /  1013.1hPa Calm     34% 0in /  0mm 0.00 W/m2
06:39 45.9 °F /  7.7 °C 18.3 °F /  -7.6 °C 29.92in /  1013.1hPa Calm     33% 0in /  0mm 0.00 W/m2
06:44 45.7 °F /  7.6 °C 18.1 °F /  -7.7 °C 29.92in /  1013.1hPa Calm     33% 0in /  0mm 0.00 W/m2
06:49 45.7 °F /  7.6 °C 18.1 °F /  -7.7 °C 29.92in /  1013.1hPa Calm     33% 0in /  0mm 0.00 W/m2
06:54 45.3 °F /  7.4 °C 18 °F /  -7.8 °C 29.93in /  1013.4hPa Calm     33% 0in /  0mm 0.00 W/m2
06:59 45.1 °F /  7.3 °C 17.8 °F /  -7.9 °C 29.93in /  1013.4hPa Calm     33% 0in /  0mm 0.00 W/m2
07:04 45.1 °F /  7.3 °C 17.1 °F /  -8.3 °C 29.93in /  1013.4hPa Calm     32% 0in /  0mm 0.00 W/m2
07:09 45 °F /  7.2 °C 18.3 °F /  -7.6 °C 29.93in /  1013.4hPa Calm     34% 0in /  0mm 0.00 W/m2
07:14 45 °F /  7.2 °C 18.9 °F /  -7.3 °C 29.93in /  1013.4hPa Calm     35% 0in /  0mm 0.00 W/m2
07:19 44.8 °F /  7.1 °C 19.4 °F /  -7 °C 29.94in /  1013.8hPa Calm     36% 0in /  0mm 7.00 W/m2
07:24 44.8 °F /  7.1 °C 23 °F /  -5 °C 29.93in /  1013.4hPa Calm   2mph /  3.2km/h 42% 0in /  0mm 11.00 W/m2
07:29 45.3 °F /  7.4 °C 29.1 °F /  -1.6 °C 29.93in /  1013.4hPa SSE 2mph /  3.2km/h 6mph /  9.7km/h 53% 0in /  0mm 14.00 W/m2
07:34 46 °F /  7.8 °C 29.5 °F /  -1.4 °C 29.94in /  1013.8hPa Calm   5mph /  8km/h 52% 0in /  0mm 18.00 W/m2
07:39 46.8 °F /  8.2 °C 30 °F /  -1.1 °C 29.94in /  1013.8hPa Calm   1mph /  1.6km/h 52% 0in /  0mm 23.00 W/m2
07:44 47.1 °F /  8.4 °C 30.4 °F /  -0.9 °C 29.94in /  1013.8hPa Calm     52% 0in /  0mm 26.00 W/m2
07:49 47.5 °F /  8.6 °C 30.7 °F /  -0.7 °C 29.94in /  1013.8hPa Calm     52% 0in /  0mm 30.00 W/m2
07:54 47.7 °F /  8.7 °C 30.9 °F /  -0.6 °C 29.94in /  1013.8hPa Calm     52% 0in /  0mm 33.00 W/m2
07:59 48 °F /  8.9 °C 31.3 °F /  -0.4 °C 29.95in /  1014.1hPa Calm     52% 0in /  0mm 37.00 W/m2
08:04 48.4 °F /  9.1 °C 31.1 °F /  -0.5 °C 29.94in /  1013.8hPa Calm   1mph /  1.6km/h 51% 0in /  0mm 42.00 W/m2
08:09 48.6 °F /  9.2 °C 29.8 °F /  -1.2 °C 29.95in /  1014.1hPa Calm     48% 0in /  0mm 44.00 W/m2
08:13 48.7 °F /  9.3 °C 27.9 °F /  -2.3 °C 29.95in /  1014.1hPa Calm   1mph /  1.6km/h 44% 0in /  0mm 47.00 W/m2
08:24 48.9 °F /  9.4 °C 22.5 °F /  -5.3 °C 29.95in /  1014.1hPa Calm   1mph /  1.6km/h 35% 0in /  0mm 56.00 W/m2
08:29 49.1 °F /  9.5 °C 21.2 °F /  -6 °C 29.95in /  1014.1hPa Calm   2mph /  3.2km/h 33% 0in /  0mm 58.00 W/m2
08:34 49.3 °F /  9.6 °C 20.7 °F /  -6.3 °C 29.95in /  1014.1hPa Calm   2mph /  3.2km/h 32% 0in /  0mm 63.00 W/m2
08:39 49.6 °F /  9.8 °C 19.4 °F /  -7 °C 29.95in /  1014.1hPa Calm   1mph /  1.6km/h 30% 0in /  0mm 65.00 W/m2
08:44 50.2 °F /  10.1 °C 21.4 °F /  -5.9 °C 29.95in /  1014.1hPa Calm   2mph /  3.2km/h 32% 0in /  0mm 70.00 W/m2
08:49 50.9 °F /  10.5 °C 26.2 °F /  -3.2 °C 29.95in /  1014.1hPa Calm   1mph /  1.6km/h 38% 0in /  0mm 70.00 W/m2
08:54 51.4 °F /  10.8 °C 28.6 °F /  -1.9 °C 29.95in /  1014.1hPa Calm   1mph /  1.6km/h 41% 0in /  0mm 81.00 W/m2
08:59 52.3 °F /  11.3 °C 28.8 °F /  -1.8 °C 29.95in /  1014.1hPa Calm     40% 0in /  0mm 76.00 W/m2
09:04 52.9 °F /  11.6 °C 25.9 °F /  -3.4 °C 29.95in /  1014.1hPa Calm   2mph /  3.2km/h 35% 0in /  0mm 79.00 W/m2
09:09 53.4 °F /  11.9 °C 25 °F /  -3.9 °C 29.95in /  1014.1hPa Calm   1mph /  1.6km/h 33% 0in /  0mm 81.00 W/m2
09:14 54.1 °F /  12.3 °C 23.4 °F /  -4.8 °C 29.95in /  1014.1hPa Calm     30% 0in /  0mm 84.00 W/m2
09:19 54.7 °F /  12.6 °C 23 °F /  -5 °C 29.95in /  1014.1hPa Calm     29% 0in /  0mm 86.00 W/m2
09:24 55 °F /  12.8 °C 23.4 °F /  -4.8 °C 29.96in /  1014.4hPa Calm     29% 0in /  0mm 88.00 W/m2
09:29 55.6 °F /  13.1 °C 22.1 °F /  -5.5 °C 29.96in /  1014.4hPa Calm     27% 0in /  0mm 90.00 W/m2
09:34 56.1 °F /  13.4 °C 23.4 °F /  -4.8 °C 29.96in /  1014.4hPa Calm     28% 0in /  0mm 95.00 W/m2
09:39 56.8 °F /  13.8 °C 22.3 °F /  -5.4 °C 29.96in /  1014.4hPa Calm   2mph /  3.2km/h 26% 0in /  0mm 411.00 W/m2
09:44 57.7 °F /  14.3 °C 22.1 °F /  -5.5 °C 29.96in /  1014.4hPa Calm     25% 0in /  0mm 425.00 W/m2
09:49 58.8 °F /  14.9 °C 22.1 °F /  -5.5 °C 29.96in /  1014.4hPa Calm     24% 0in /  0mm 443.00 W/m2
09:54 60.3 °F /  15.7 °C 21.2 °F /  -6 °C 29.96in /  1014.4hPa Calm     22% 0in /  0mm 457.00 W/m2
09:59 61.3 °F /  16.3 °C 14.7 °F /  -9.6 °C 29.96in /  1014.4hPa Calm     16% 0in /  0mm 475.00 W/m2
10:04 61.7 °F /  16.5 °C 12 °F /  -11.1 °C 29.96in /  1014.4hPa Calm   1mph /  1.6km/h 14% 0in /  0mm 496.00 W/m2
10:09 62.1 °F /  16.7 °C 13.8 °F /  -10.1 °C 29.96in /  1014.4hPa Calm   1mph /  1.6km/h 15% 0in /  0mm 513.00 W/m2
10:14 62.4 °F /  16.9 °C 10.9 °F /  -11.7 °C 29.96in /  1014.4hPa Calm   1mph /  1.6km/h 13% 0in /  0mm 522.00 W/m2
10:19 63 °F /  17.2 °C 12.9 °F /  -10.6 °C 29.96in /  1014.4hPa Calm     14% 0in /  0mm 540.00 W/m2
10:24 63.7 °F /  17.6 °C 13.6 °F /  -10.2 °C 29.96in /  1014.4hPa Calm   1mph /  1.6km/h 14% 0in /  0mm 555.00 W/m2
10:29 64.4 °F /  18 °C 10.6 °F /  -11.9 °C 29.96in /  1014.4hPa Calm   1mph /  1.6km/h 12% 0in /  0mm 570.00 W/m2
10:34 65.1 °F /  18.4 °C 13.1 °F /  -10.5 °C 29.96in /  1014.4hPa Calm   1mph /  1.6km/h 13% 0in /  0mm 582.00 W/m2
10:39 65.7 °F /  18.7 °C 9.7 °F /  -12.4 °C 29.96in /  1014.4hPa NNW 0.9mph /  1.4km/h 5mph /  8km/h 11% 0in /  0mm 589.00 W/m2
10:44 66.2 °F /  19 °C 10 °F /  -12.2 °C 29.95in /  1014.1hPa Calm   2mph /  3.2km/h 11% 0in /  0mm 606.00 W/m2
10:49 66.6 °F /  19.2 °C 12.4 °F /  -10.9 °C 29.95in /  1014.1hPa NW 4mph /  6.4km/h 8mph /  12.9km/h 12% 0in /  0mm 613.00 W/m2
10:54 66.9 °F /  19.4 °C 12.6 °F /  -10.8 °C 29.95in /  1014.1hPa Calm   2mph /  3.2km/h 12% 0in /  0mm 621.00 W/m2
10:59 67.5 °F /  19.7 °C 13.1 °F /  -10.5 °C 29.95in /  1014.1hPa West 2mph /  3.2km/h 3mph /  4.8km/h 12% 0in /  0mm 636.00 W/m2
11:04 67.5 °F /  19.7 °C 13.1 °F /  -10.5 °C 29.95in /  1014.1hPa NNW 4mph /  6.4km/h 5mph /  8km/h 12% 0in /  0mm 663.00 W/m2
11:09 67.8 °F /  19.9 °C 13.3 °F /  -10.4 °C 29.94in /  1013.8hPa Calm   1mph /  1.6km/h 12% 0in /  0mm 670.00 W/m2
11:14 68 °F /  20 °C 13.5 °F /  -10.3 °C 29.94in /  1013.8hPa Calm   1mph /  1.6km/h 12% 0in /  0mm 664.00 W/m2
11:19 68.4 °F /  20.2 °C 13.8 °F /  -10.1 °C 29.94in /  1013.8hPa NNW 2mph /  3.2km/h 3mph /  4.8km/h 12% 0in /  0mm 686.00 W/m2
11:24 68.5 °F /  20.3 °C 13.8 °F /  -10.1 °C 29.94in /  1013.8hPa Calm   7mph /  11.3km/h 12% 0in /  0mm 691.00 W/m2
11:29 68.7 °F /  20.4 °C 14 °F /  -10 °C 29.94in /  1013.8hPa NNW 2mph /  3.2km/h 4mph /  6.4km/h 12% 0in /  0mm 701.00 W/m2
11:34 68.9 °F /  20.5 °C 12.2 °F /  -11 °C 29.93in /  1013.4hPa NNW 0.9mph /  1.4km/h 7mph /  11.3km/h 11% 0in /  0mm 710.00 W/m2
11:39 69.1 °F /  20.6 °C 12.4 °F /  -10.9 °C 29.93in /  1013.4hPa Calm   5mph /  8km/h 11% 0in /  0mm 712.00 W/m2
11:44 69.4 °F /  20.8 °C 10.4 °F /  -12 °C 29.93in /  1013.4hPa North 2mph /  3.2km/h 9mph /  14.5km/h 10% 0in /  0mm 722.00 W/m2
11:49 69.6 °F /  20.9 °C 12.7 °F /  -10.7 °C 29.93in /  1013.4hPa NNW 2.9mph /  4.7km/h 3mph /  4.8km/h 11% 0in /  0mm 731.00 W/m2
11:54 70 °F /  21.1 °C 10.9 °F /  -11.7 °C 29.93in /  1013.4hPa Calm   3mph /  4.8km/h 10% 0in /  0mm 728.00 W/m2
11:59 70.3 °F /  21.3 °C 11.1 °F /  -11.6 °C 29.93in /  1013.4hPa NNW 2.9mph /  4.7km/h 6mph /  9.7km/h 10% 0in /  0mm 742.00 W/m2
12:04 70.5 °F /  21.4 °C 13.5 °F /  -10.3 °C 29.92in /  1013.1hPa NNW 4mph /  6.4km/h 7mph /  11.3km/h 11% 0in /  0mm 738.00 W/m2
12:09 70.9 °F /  21.6 °C 15.8 °F /  -9 °C 29.92in /  1013.1hPa North 4.9mph /  7.9km/h 9mph /  14.5km/h 12% 0in /  0mm 752.00 W/m2
Olympia, Windhoek, Namibia
Compliments of Weather Underground - 2.5 mb